LC10 LDZD-BKPR
Flight info
| Callsign | LC10 |
|---|---|
| Flight time | 0h 53m |
| Altitude | 310 |
| Route | SPL1V VELIT BARIT GACMO MOJ MEDU1D |
| Aircraft | B733/M-V/N |
Departure
| Time | 2026-04-21 07:20 |
|---|---|
| Airport | Zadar Airport (LDZD) |
Arrival
| Time | 2026-04-21 08:14 |
|---|---|
| Airport | Priština Adem Jashari International Airport (BKPR) |
| Time | Latitude | Longitude | Altitude | Speed | Heading |
|---|---|---|---|---|---|
| 2026-04-21 07:09 | 44.09666 | 15.35482 | 263 ft | 0 kts | 326° |
| 2026-04-21 07:15 | 44.09668 | 15.35481 | 263 ft | 0 kts | 332° |
| 2026-04-21 07:15 | 44.09674 | 15.35482 | 263 ft | 2 kts | 21° |
| 2026-04-21 07:15 | 44.09705 | 15.35522 | 262 ft | 9 kts | 22° |
| 2026-04-21 07:15 | 44.09787 | 15.35525 | 260 ft | 13 kts | 354° |
| 2026-04-21 07:16 | 44.09894 | 15.35510 | 258 ft | 17 kts | 330° |
| 2026-04-21 07:16 | 44.09985 | 15.35387 | 259 ft | 19 kts | 315° |
| 2026-04-21 07:16 | 44.10084 | 15.35256 | 258 ft | 20 kts | 316° |
| 2026-04-21 07:16 | 44.10192 | 15.35111 | 256 ft | 22 kts | 315° |
| 2026-04-21 07:17 | 44.10313 | 15.34948 | 253 ft | 24 kts | 315° |
| 2026-04-21 07:17 | 44.10438 | 15.34777 | 250 ft | 26 kts | 315° |
| 2026-04-21 07:17 | 44.10576 | 15.34590 | 246 ft | 27 kts | 315° |
| 2026-04-21 07:17 | 44.10712 | 15.34402 | 246 ft | 27 kts | 315° |
| 2026-04-21 07:18 | 44.10852 | 15.34216 | 246 ft | 27 kts | 316° |
| 2026-04-21 07:18 | 44.10992 | 15.34028 | 243 ft | 28 kts | 315° |
| 2026-04-21 07:18 | 44.11135 | 15.33831 | 243 ft | 28 kts | 315° |
| 2026-04-21 07:18 | 44.11278 | 15.33639 | 241 ft | 29 kts | 316° |
| 2026-04-21 07:19 | 44.11423 | 15.33443 | 238 ft | 19 kts | 315° |
| 2026-04-21 07:19 | 44.11515 | 15.33390 | 237 ft | 15 kts | 37° |
| 2026-04-21 07:19 | 44.11591 | 15.33502 | 237 ft | 16 kts | 47° |
| 2026-04-21 07:19 | 44.11591 | 15.33629 | 239 ft | 15 kts | 130° |
| 2026-04-21 07:20 | 44.11378 | 15.33924 | 242 ft | 77 kts | 135° |
| 2026-04-21 07:20 | 44.10828 | 15.34663 | 247 ft | 140 kts | 136° |
| 2026-04-21 07:20 | 44.10006 | 15.35760 | 326 ft | 181 kts | 135° |
| 2026-04-21 07:20 | 44.09074 | 15.37029 | 900 ft | 189 kts | 133° |
| 2026-04-21 07:21 | 44.08141 | 15.38310 | 1531 ft | 189 kts | 134° |
| 2026-04-21 07:21 | 44.07192 | 15.39590 | 2044 ft | 195 kts | 134° |
| 2026-04-21 07:21 | 44.06226 | 15.40892 | 2555 ft | 195 kts | 134° |
| 2026-04-21 07:21 | 44.05249 | 15.42210 | 3057 ft | 197 kts | 134° |
| 2026-04-21 07:22 | 44.04261 | 15.43542 | 3567 ft | 201 kts | 134° |
| 2026-04-21 07:22 | 44.03252 | 15.44901 | 4078 ft | 198 kts | 134° |
| 2026-04-21 07:22 | 44.02257 | 15.46243 | 4575 ft | 203 kts | 134° |
| 2026-04-21 07:22 | 44.01230 | 15.47628 | 4977 ft | 216 kts | 134° |
| 2026-04-21 07:23 | 44.00106 | 15.49142 | 5289 ft | 233 kts | 134° |
| 2026-04-21 07:23 | 43.98967 | 15.50861 | 5628 ft | 250 kts | 128° |
| 2026-04-21 07:23 | 43.97806 | 15.52769 | 5999 ft | 267 kts | 128° |
| 2026-04-21 07:23 | 43.96581 | 15.54780 | 6569 ft | 275 kts | 128° |
| 2026-04-21 07:24 | 43.95343 | 15.56805 | 7254 ft | 278 kts | 128° |
| 2026-04-21 07:24 | 43.94088 | 15.58858 | 7907 ft | 282 kts | 128° |
| 2026-04-21 07:24 | 43.92806 | 15.60953 | 8549 ft | 286 kts | 128° |
| 2026-04-21 07:24 | 43.91524 | 15.63046 | 9187 ft | 289 kts | 128° |
| 2026-04-21 07:25 | 43.90219 | 15.65175 | 9828 ft | 292 kts | 129° |
| 2026-04-21 07:25 | 43.88885 | 15.67348 | 10179 ft | 307 kts | 129° |
| 2026-04-21 07:25 | 43.87435 | 15.69704 | 10250 ft | 330 kts | 129° |
| 2026-04-21 07:25 | 43.85987 | 15.72056 | 10566 ft | 343 kts | 129° |
| 2026-04-21 07:26 | 43.84423 | 15.74594 | 11138 ft | 349 kts | 129° |
| 2026-04-21 07:26 | 43.82844 | 15.77157 | 11743 ft | 353 kts | 129° |
| 2026-04-21 07:26 | 43.81247 | 15.79747 | 12351 ft | 357 kts | 129° |
| 2026-04-21 07:26 | 43.79628 | 15.82372 | 12906 ft | 362 kts | 129° |
| 2026-04-21 07:27 | 43.78009 | 15.84995 | 13440 ft | 366 kts | 129° |
| 2026-04-21 07:27 | 43.76349 | 15.87682 | 13975 ft | 371 kts | 129° |
| 2026-04-21 07:27 | 43.74666 | 15.90403 | 14501 ft | 375 kts | 128° |
| 2026-04-21 07:27 | 43.72964 | 15.93152 | 15016 ft | 380 kts | 128° |
| 2026-04-21 07:28 | 43.71243 | 15.95930 | 15518 ft | 384 kts | 128° |
| 2026-04-21 07:28 | 43.69501 | 15.98738 | 16009 ft | 388 kts | 128° |
| 2026-04-21 07:28 | 43.67741 | 16.01574 | 16491 ft | 392 kts | 128° |
| 2026-04-21 07:28 | 43.65956 | 16.04446 | 16962 ft | 396 kts | 127° |
| 2026-04-21 07:29 | 43.64158 | 16.07336 | 17427 ft | 400 kts | 127° |
| 2026-04-21 07:29 | 43.62342 | 16.10253 | 17884 ft | 404 kts | 127° |
| 2026-04-21 07:29 | 43.60505 | 16.13200 | 18327 ft | 408 kts | 127° |
| 2026-04-21 07:29 | 43.58649 | 16.16175 | 18774 ft | 412 kts | 127° |
| 2026-04-21 07:30 | 43.56805 | 16.19126 | 19200 ft | 416 kts | 127° |
| 2026-04-21 07:30 | 43.54916 | 16.22149 | 19618 ft | 420 kts | 127° |
| 2026-04-21 07:30 | 43.52979 | 16.25243 | 20041 ft | 423 kts | 127° |
| 2026-04-21 07:30 | 43.51081 | 16.28287 | 20446 ft | 426 kts | 125° |
| 2026-04-21 07:31 | 43.49551 | 16.31710 | 20810 ft | 418 kts | 105° |
| 2026-04-21 07:31 | 43.48838 | 16.35532 | 21198 ft | 412 kts | 94° |
| 2026-04-21 07:31 | 43.48315 | 16.39412 | 21610 ft | 414 kts | 94° |
| 2026-04-21 07:31 | 43.47778 | 16.43315 | 22006 ft | 418 kts | 94° |
| 2026-04-21 07:32 | 43.47219 | 16.47249 | 22381 ft | 421 kts | 94° |
| 2026-04-21 07:32 | 43.46647 | 16.51206 | 22775 ft | 424 kts | 94° |
| 2026-04-21 07:32 | 43.46067 | 16.55187 | 23174 ft | 426 kts | 94° |
| 2026-04-21 07:32 | 43.45482 | 16.59187 | 23535 ft | 429 kts | 94° |
| 2026-04-21 07:33 | 43.44891 | 16.63215 | 23889 ft | 432 kts | 93° |
| 2026-04-21 07:33 | 43.44304 | 16.67209 | 24189 ft | 436 kts | 94° |
| 2026-04-21 07:33 | 43.43699 | 16.71308 | 24509 ft | 439 kts | 94° |
| 2026-04-21 07:33 | 43.43089 | 16.75430 | 24906 ft | 441 kts | 94° |
| 2026-04-21 07:34 | 43.42474 | 16.79574 | 25236 ft | 444 kts | 94° |
| 2026-04-21 07:34 | 43.41855 | 16.83725 | 25681 ft | 443 kts | 93° |
| 2026-04-21 07:34 | 43.41239 | 16.87840 | 26267 ft | 438 kts | 93° |
| 2026-04-21 07:34 | 43.40636 | 16.91868 | 26738 ft | 436 kts | 93° |
| 2026-04-21 07:35 | 43.40026 | 16.95949 | 27158 ft | 436 kts | 92° |
| 2026-04-21 07:35 | 43.39416 | 17.00010 | 27628 ft | 433 kts | 93° |
| 2026-04-21 07:35 | 43.38806 | 17.04055 | 28107 ft | 431 kts | 93° |
| 2026-04-21 07:35 | 43.38198 | 17.08067 | 28535 ft | 429 kts | 92° |
| 2026-04-21 07:36 | 43.37600 | 17.12026 | 28788 ft | 432 kts | 92° |
| 2026-04-21 07:36 | 43.36988 | 17.16073 | 29037 ft | 434 kts | 92° |
| 2026-04-21 07:36 | 43.36369 | 17.20145 | 29337 ft | 435 kts | 92° |
| 2026-04-21 07:36 | 43.35742 | 17.24247 | 29623 ft | 436 kts | 92° |
| 2026-04-21 07:37 | 43.35114 | 17.28317 | 29968 ft | 436 kts | 92° |
| 2026-04-21 07:37 | 43.34481 | 17.32330 | 30177 ft | 439 kts | 92° |
| 2026-04-21 07:37 | 43.33838 | 17.36422 | 30461 ft | 439 kts | 91° |
| 2026-04-21 07:37 | 43.33201 | 17.40521 | 30704 ft | 440 kts | 92° |
| 2026-04-21 07:38 | 43.32563 | 17.44631 | 30908 ft | 442 kts | 91° |
| 2026-04-21 07:38 | 43.31924 | 17.48744 | 31007 ft | 439 kts | 91° |
| 2026-04-21 07:38 | 43.30654 | 17.56906 | 30983 ft | 436 kts | 91° |
| 2026-04-21 07:39 | 43.29393 | 17.64962 | 30962 ft | 435 kts | 91° |
| 2026-04-21 07:39 | 43.28118 | 17.73082 | 30979 ft | 434 kts | 92° |
| 2026-04-21 07:40 | 43.26837 | 17.81185 | 30955 ft | 436 kts | 92° |
| 2026-04-21 07:40 | 43.25525 | 17.89271 | 30984 ft | 437 kts | 92° |
| 2026-04-21 07:41 | 43.24166 | 17.97380 | 30969 ft | 436 kts | 92° |
| 2026-04-21 07:41 | 43.22819 | 18.05477 | 30963 ft | 436 kts | 92° |
| 2026-04-21 07:42 | 43.21479 | 18.13494 | 30960 ft | 436 kts | 92° |
| 2026-04-21 07:42 | 43.20123 | 18.21599 | 30975 ft | 436 kts | 92° |
| 2026-04-21 07:43 | 43.18761 | 18.29687 | 30976 ft | 435 kts | 92° |
| 2026-04-21 07:43 | 43.17402 | 18.37705 | 30971 ft | 436 kts | 92° |
| 2026-04-21 07:44 | 43.16032 | 18.45771 | 30960 ft | 437 kts | 92° |
| 2026-04-21 07:44 | 43.14646 | 18.53877 | 30978 ft | 437 kts | 92° |
| 2026-04-21 07:45 | 43.13140 | 18.61934 | 30986 ft | 439 kts | 94° |
| 2026-04-21 07:45 | 43.11603 | 18.69928 | 30982 ft | 438 kts | 94° |
| 2026-04-21 07:46 | 43.10061 | 18.78003 | 30995 ft | 440 kts | 94° |
| 2026-04-21 07:46 | 43.08505 | 18.86113 | 30989 ft | 440 kts | 94° |
| 2026-04-21 07:47 | 43.06951 | 18.94187 | 30967 ft | 440 kts | 95° |
| 2026-04-21 07:47 | 43.05381 | 19.02307 | 30959 ft | 442 kts | 96° |
| 2026-04-21 07:48 | 43.03801 | 19.10437 | 30968 ft | 442 kts | 98° |
| 2026-04-21 07:48 | 43.02223 | 19.18526 | 30974 ft | 442 kts | 99° |
| 2026-04-21 07:49 | 43.00640 | 19.26608 | 30968 ft | 440 kts | 100° |
| 2026-04-21 07:49 | 42.99062 | 19.34637 | 30964 ft | 440 kts | 100° |
| 2026-04-21 07:50 | 42.97463 | 19.42734 | 30969 ft | 440 kts | 100° |
| 2026-04-21 07:50 | 42.96663 | 19.46778 | 30653 ft | 444 kts | 100° |
| 2026-04-21 07:50 | 42.95865 | 19.50799 | 30167 ft | 441 kts | 100° |
| 2026-04-21 07:51 | 42.95066 | 19.54811 | 29669 ft | 437 kts | 100° |
| 2026-04-21 07:51 | 42.94107 | 19.58715 | 29159 ft | 438 kts | 113° |
| 2026-04-21 07:51 | 42.92561 | 19.62295 | 28683 ft | 440 kts | 118° |
| 2026-04-21 07:51 | 42.90926 | 19.65815 | 28186 ft | 442 kts | 118° |
| 2026-04-21 07:52 | 42.89314 | 19.69376 | 27648 ft | 443 kts | 118° |
| 2026-04-21 07:52 | 42.87715 | 19.72947 | 27147 ft | 441 kts | 117° |
| 2026-04-21 07:52 | 42.86131 | 19.76517 | 26650 ft | 441 kts | 117° |
| 2026-04-21 07:52 | 42.84574 | 19.80039 | 26166 ft | 442 kts | 117° |
| 2026-04-21 07:53 | 42.82973 | 19.83665 | 25665 ft | 442 kts | 117° |
| 2026-04-21 07:53 | 42.81408 | 19.87204 | 25173 ft | 441 kts | 117° |
| 2026-04-21 07:53 | 42.79830 | 19.90771 | 24672 ft | 437 kts | 117° |
| 2026-04-21 07:53 | 42.78273 | 19.94286 | 24171 ft | 432 kts | 117° |
| 2026-04-21 07:54 | 42.76731 | 19.97762 | 23674 ft | 427 kts | 117° |
| 2026-04-21 07:54 | 42.75233 | 20.01143 | 23182 ft | 423 kts | 116° |
| 2026-04-21 07:54 | 42.74126 | 20.04765 | 22680 ft | 411 kts | 102° |
| 2026-04-21 07:54 | 42.73384 | 20.08486 | 22186 ft | 407 kts | 101° |
| 2026-04-21 07:55 | 42.72651 | 20.12188 | 21686 ft | 403 kts | 102° |
| 2026-04-21 07:55 | 42.71911 | 20.15838 | 21187 ft | 400 kts | 102° |
| 2026-04-21 07:55 | 42.71180 | 20.19397 | 20696 ft | 396 kts | 102° |
| 2026-04-21 07:55 | 42.70439 | 20.22978 | 20197 ft | 392 kts | 102° |
| 2026-04-21 07:56 | 42.69696 | 20.26557 | 19693 ft | 389 kts | 102° |
| 2026-04-21 07:56 | 42.68964 | 20.30073 | 19193 ft | 386 kts | 103° |
| 2026-04-21 07:56 | 42.68236 | 20.33558 | 18695 ft | 383 kts | 103° |
| 2026-04-21 07:56 | 42.67514 | 20.37011 | 18196 ft | 379 kts | 103° |
| 2026-04-21 07:57 | 42.66808 | 20.40389 | 17704 ft | 377 kts | 103° |
| 2026-04-21 07:57 | 42.66095 | 20.43785 | 17206 ft | 373 kts | 103° |
| 2026-04-21 07:57 | 42.65387 | 20.47157 | 16707 ft | 370 kts | 103° |
| 2026-04-21 07:57 | 42.64683 | 20.50502 | 16208 ft | 367 kts | 103° |
| 2026-04-21 07:58 | 42.63983 | 20.53820 | 15709 ft | 364 kts | 103° |
| 2026-04-21 07:58 | 42.63288 | 20.57115 | 15210 ft | 362 kts | 103° |
| 2026-04-21 07:58 | 42.62598 | 20.60376 | 14712 ft | 359 kts | 103° |
| 2026-04-21 07:58 | 42.61921 | 20.63564 | 14221 ft | 356 kts | 104° |
| 2026-04-21 07:59 | 42.61220 | 20.66817 | 13691 ft | 354 kts | 104° |
| 2026-04-21 07:59 | 42.60538 | 20.70001 | 13190 ft | 350 kts | 104° |
| 2026-04-21 07:59 | 42.59863 | 20.73163 | 12688 ft | 346 kts | 104° |
| 2026-04-21 07:59 | 42.59197 | 20.76286 | 12187 ft | 342 kts | 104° |
| 2026-04-21 08:00 | 42.58544 | 20.79341 | 11693 ft | 339 kts | 104° |
| 2026-04-21 08:00 | 42.57893 | 20.82387 | 11271 ft | 333 kts | 104° |
| 2026-04-21 08:00 | 42.57246 | 20.85408 | 10932 ft | 325 kts | 104° |
| 2026-04-21 08:00 | 42.56627 | 20.88296 | 10587 ft | 318 kts | 104° |
| 2026-04-21 08:01 | 42.56013 | 20.91158 | 10170 ft | 313 kts | 104° |
| 2026-04-21 08:01 | 42.55403 | 20.93996 | 9788 ft | 308 kts | 104° |
| 2026-04-21 08:01 | 42.54812 | 20.96741 | 9413 ft | 303 kts | 104° |
| 2026-04-21 08:02 | 42.53656 | 21.02104 | 8662 ft | 293 kts | 104° |
| 2026-04-21 08:02 | 42.53089 | 21.04730 | 8285 ft | 288 kts | 105° |
| 2026-04-21 08:02 | 42.52528 | 21.07313 | 7908 ft | 284 kts | 105° |
| 2026-04-21 08:02 | 42.51970 | 21.09858 | 7532 ft | 280 kts | 105° |
| 2026-04-21 08:03 | 42.51423 | 21.12367 | 7156 ft | 276 kts | 105° |
| 2026-04-21 08:03 | 42.50883 | 21.14842 | 6789 ft | 272 kts | 104° |
| 2026-04-21 08:03 | 42.50358 | 21.17248 | 6623 ft | 262 kts | 104° |
| 2026-04-21 08:03 | 42.49849 | 21.19590 | 6583 ft | 262 kts | 104° |
| 2026-04-21 08:04 | 42.49326 | 21.21987 | 6604 ft | 263 kts | 104° |
| 2026-04-21 08:04 | 42.48663 | 21.24301 | 6611 ft | 266 kts | 120° |
| 2026-04-21 08:04 | 42.47430 | 21.26139 | 6622 ft | 271 kts | 139° |
| 2026-04-21 08:04 | 42.45909 | 21.27708 | 6620 ft | 272 kts | 140° |
| 2026-04-21 08:05 | 42.44389 | 21.29257 | 6326 ft | 275 kts | 140° |
| 2026-04-21 08:05 | 42.42873 | 21.30800 | 5953 ft | 273 kts | 140° |
| 2026-04-21 08:05 | 42.41366 | 21.32332 | 5577 ft | 270 kts | 140° |
| 2026-04-21 08:05 | 42.39867 | 21.33814 | 5199 ft | 269 kts | 147° |
| 2026-04-21 08:06 | 42.38067 | 21.34435 | 4809 ft | 272 kts | 183° |
| 2026-04-21 08:06 | 42.36319 | 21.33554 | 4425 ft | 272 kts | 219° |
| 2026-04-21 08:06 | 42.35259 | 21.31503 | 4042 ft | 269 kts | 255° |
| 2026-04-21 08:06 | 42.35257 | 21.29050 | 3676 ft | 261 kts | 292° |
| 2026-04-21 08:07 | 42.36138 | 21.27011 | 3526 ft | 246 kts | 304° |
| 2026-04-21 08:07 | 42.36924 | 21.25019 | 3506 ft | 231 kts | 297° |
| 2026-04-21 08:07 | 42.37518 | 21.23106 | 3533 ft | 213 kts | 294° |
| 2026-04-21 08:07 | 42.38013 | 21.21210 | 3530 ft | 212 kts | 291° |
| 2026-04-21 08:08 | 42.38450 | 21.19303 | 3524 ft | 211 kts | 289° |
| 2026-04-21 08:08 | 42.38842 | 21.17397 | 3513 ft | 209 kts | 288° |
| 2026-04-21 08:08 | 42.39204 | 21.15488 | 3500 ft | 209 kts | 287° |
| 2026-04-21 08:08 | 42.39542 | 21.13591 | 3502 ft | 208 kts | 287° |
| 2026-04-21 08:09 | 42.39870 | 21.11667 | 3525 ft | 208 kts | 286° |
| 2026-04-21 08:09 | 42.40180 | 21.09785 | 3537 ft | 201 kts | 286° |
| 2026-04-21 08:09 | 42.40472 | 21.07963 | 3530 ft | 191 kts | 286° |
| 2026-04-21 08:09 | 42.40939 | 21.06415 | 3615 ft | 177 kts | 311° |
| 2026-04-21 08:10 | 42.41894 | 21.05391 | 3563 ft | 170 kts | 340° |
| 2026-04-21 08:10 | 42.43029 | 21.05067 | 3517 ft | 166 kts | 355° |
| 2026-04-21 08:10 | 42.44159 | 21.04913 | 3503 ft | 165 kts | 357° |
| 2026-04-21 08:10 | 42.45315 | 21.04787 | 3500 ft | 165 kts | 358° |
| 2026-04-21 08:11 | 42.46457 | 21.04675 | 3502 ft | 165 kts | 358° |
| 2026-04-21 08:11 | 42.47603 | 21.04566 | 3503 ft | 165 kts | 358° |
| 2026-04-21 08:11 | 42.48752 | 21.04453 | 3503 ft | 165 kts | 358° |
| 2026-04-21 08:11 | 42.49894 | 21.04339 | 3503 ft | 165 kts | 358° |
| 2026-04-21 08:12 | 42.51051 | 21.04222 | 3327 ft | 169 kts | 358° |
| 2026-04-21 08:12 | 42.52209 | 21.04106 | 2856 ft | 166 kts | 357° |
| 2026-04-21 08:12 | 42.53341 | 21.03993 | 2414 ft | 158 kts | 357° |
| 2026-04-21 08:12 | 42.54376 | 21.03888 | 2154 ft | 138 kts | 357° |
| 2026-04-21 08:13 | 42.55290 | 21.03784 | 1974 ft | 135 kts | 356° |
| 2026-04-21 08:13 | 42.56220 | 21.03695 | 1821 ft | 134 kts | 357° |
| 2026-04-21 08:13 | 42.57069 | 21.03606 | 1782 ft | 99 kts | 355° |
| 2026-04-21 08:13 | 42.57600 | 21.03548 | 1784 ft | 59 kts | 356° |
| 2026-04-21 08:14 | 42.57962 | 21.03519 | 1788 ft | 47 kts | 353° |
| 2026-04-21 08:14 | 42.58228 | 21.03482 | 1792 ft | 20 kts | 327° |
| 2026-04-21 08:14 | 42.58252 | 21.03327 | 1794 ft | 0 kts | 265° |
| 2026-04-21 08:14 | 42.58252 | 21.03325 | 1794 ft | 1 kts | 265° |
| 2026-04-21 08:15 | 42.58248 | 21.03287 | 1794 ft | 7 kts | 261° |
| 2026-04-21 08:15 | 42.58186 | 21.03250 | 1794 ft | 15 kts | 175° |
| 2026-04-21 08:15 | 42.58047 | 21.03263 | 1793 ft | 22 kts | 176° |
| 2026-04-21 08:15 | 42.57890 | 21.03278 | 1793 ft | 23 kts | 175° |
| 2026-04-21 08:16 | 42.57726 | 21.03298 | 1790 ft | 25 kts | 176° |
| 2026-04-21 08:16 | 42.57548 | 21.03313 | 1789 ft | 26 kts | 172° |
| 2026-04-21 08:16 | 42.57368 | 21.03333 | 1786 ft | 18 kts | 178° |
| 2026-04-21 08:16 | 42.57323 | 21.03206 | 1788 ft | 14 kts | 265° |
| 2026-04-21 08:17 | 42.57321 | 21.03174 | 1788 ft | 0 kts | 266° |
| 2026-04-21 08:17 | 42.57320 | 21.03161 | 1788 ft | 2 kts | 268° |
| 2026-04-21 08:17 | 42.57320 | 21.03151 | 1788 ft | 0 kts | 264° |